sensor_id;sensor_type;location;lat;lon;timestamp;pressure;altitude;pressure_sealevel;temperature;humidity
60817;BME280;51921;51.518;-3.188;2023-05-29T00:00:25;102319.91;;;7.91;100.00
60817;BME280;51921;51.518;-3.188;2023-05-29T00:02:50;102319.46;;;8.22;100.00
60817;BME280;51921;51.518;-3.188;2023-05-29T00:05:16;102316.86;;;7.98;100.00
60817;BME280;51921;51.518;-3.188;2023-05-29T00:07:41;102327.39;;;7.96;100.00
60817;BME280;51921;51.518;-3.188;2023-05-29T00:10:08;102336.52;;;8.09;100.00
60817;BME280;51921;51.518;-3.188;2023-05-29T00:12:32;102324.45;;;7.88;100.00
60817;BME280;51921;51.518;-3.188;2023-05-29T00:14:57;102334.40;;;8.10;100.00
60817;BME280;51921;51.518;-3.188;2023-05-29T00:17:23;102328.69;;;7.98;100.00
60817;BME280;51921;51.518;-3.188;2023-05-29T00:19:49;102336.05;;;7.75;100.00
60817;BME280;51921;51.518;-3.188;2023-05-29T00:22:14;102331.77;;;7.95;100.00
60817;BME280;51921;51.518;-3.188;2023-05-29T00:24:40;102342.83;;;7.85;100.00
60817;BME280;51921;51.518;-3.188;2023-05-29T00:27:05;102337.04;;;7.75;100.00
60817;BME280;51921;51.518;-3.188;2023-05-29T00:29:31;102337.69;;;7.69;100.00
60817;BME280;51921;51.518;-3.188;2023-05-29T00:31:56;102344.50;;;7.93;100.00
60817;BME280;51921;51.518;-3.188;2023-05-29T00:34:22;102356.75;;;7.81;100.00
60817;BME280;51921;51.518;-3.188;2023-05-29T00:36:47;102352.59;;;7.84;100.00
60817;BME280;51921;51.518;-3.188;2023-05-29T00:39:12;102351.40;;;7.63;100.00
60817;BME280;51921;51.518;-3.188;2023-05-29T00:41:38;102351.80;;;7.60;100.00
60817;BME280;51921;51.518;-3.188;2023-05-29T00:44:04;102345.53;;;7.45;100.00
60817;BME280;51921;51.518;-3.188;2023-05-29T00:46:30;102353.16;;;7.71;100.00
60817;BME280;51921;51.518;-3.188;2023-05-29T00:48:55;102358.58;;;7.41;100.00
60817;BME280;51921;51.518;-3.188;2023-05-29T00:51:20;102350.33;;;7.24;100.00
60817;BME280;51921;51.518;-3.188;2023-05-29T00:53:46;102353.02;;;7.53;100.00
60817;BME280;51921;51.518;-3.188;2023-05-29T00:56:12;102350.91;;;7.41;100.00
60817;BME280;51921;51.518;-3.188;2023-05-29T00:58:37;102348.28;;;7.50;100.00
60817;BME280;51921;51.518;-3.188;2023-05-29T01:01:02;102353.15;;;7.46;100.00
60817;BME280;51921;51.518;-3.188;2023-05-29T01:03:27;102349.59;;;7.59;100.00
60817;BME280;51921;51.518;-3.188;2023-05-29T01:05:53;102353.14;;;7.20;100.00
60817;BME280;51921;51.518;-3.188;2023-05-29T01:08:19;102362.22;;;7.10;100.00
60817;BME280;51921;51.518;-3.188;2023-05-29T01:10:45;102363.48;;;7.05;100.00
60817;BME280;51921;51.518;-3.188;2023-05-29T01:13:13;102361.86;;;6.99;100.00
60817;BME280;51921;51.518;-3.188;2023-05-29T01:15:41;102364.06;;;6.87;100.00
60817;BME280;51921;51.518;-3.188;2023-05-29T01:18:10;102370.48;;;7.19;100.00
60817;BME280;51921;51.518;-3.188;2023-05-29T01:20:30;102373.58;;;6.90;100.00
60817;BME280;51921;51.518;-3.188;2023-05-29T01:25:21;102376.40;;;6.74;100.00
60817;BME280;51921;51.518;-3.188;2023-05-29T01:27:43;102376.61;;;6.97;100.00
60817;BME280;51921;51.518;-3.188;2023-05-29T01:30:08;102372.50;;;6.67;100.00
60817;BME280;51921;51.518;-3.188;2023-05-29T01:32:34;102375.92;;;6.87;100.00
60817;BME280;51921;51.518;-3.188;2023-05-29T01:34:59;102378.01;;;6.77;100.00
60817;BME280;51921;51.518;-3.188;2023-05-29T01:37:24;102377.38;;;6.72;100.00
60817;BME280;51921;51.518;-3.188;2023-05-29T01:39:50;102381.46;;;6.76;100.00
60817;BME280;51921;51.518;-3.188;2023-05-29T01:42:15;102383.84;;;6.70;100.00
60817;BME280;51921;51.518;-3.188;2023-05-29T01:44:41;102388.86;;;6.76;100.00
60817;BME280;51921;51.518;-3.188;2023-05-29T01:47:06;102388.84;;;6.45;100.00
60817;BME280;51921;51.518;-3.188;2023-05-29T01:49:32;102393.50;;;6.41;100.00
60817;BME280;51921;51.518;-3.188;2023-05-29T01:51:58;102396.07;;;6.38;100.00
60817;BME280;51921;51.518;-3.188;2023-05-29T01:54:23;102390.70;;;6.42;100.00
60817;BME280;51921;51.518;-3.188;2023-05-29T01:56:49;102387.95;;;6.07;100.00
60817;BME280;51921;51.518;-3.188;2023-05-29T01:59:14;102389.49;;;6.23;100.00
60817;BME280;51921;51.518;-3.188;2023-05-29T02:01:39;102392.22;;;5.93;100.00
60817;BME280;51921;51.518;-3.188;2023-05-29T02:04:05;102391.27;;;6.06;100.00
60817;BME280;51921;51.518;-3.188;2023-05-29T02:06:30;102393.23;;;6.13;100.00
60817;BME280;51921;51.518;-3.188;2023-05-29T02:08:56;102393.39;;;5.86;100.00
60817;BME280;51921;51.518;-3.188;2023-05-29T02:11:21;102395.27;;;5.99;100.00
60817;BME280;51921;51.518;-3.188;2023-05-29T02:13:47;102397.61;;;6.05;100.00
60817;BME280;51921;51.518;-3.188;2023-05-29T02:16:12;102398.14;;;5.77;100.00
60817;BME280;51921;51.518;-3.188;2023-05-29T02:18:37;102403.06;;;5.58;100.00
60817;BME280;51921;51.518;-3.188;2023-05-29T02:21:03;102399.24;;;5.45;100.00
60817;BME280;51921;51.518;-3.188;2023-05-29T02:23:28;102396.81;;;5.60;100.00
60817;BME280;51921;51.518;-3.188;2023-05-29T02:25:54;102394.80;;;5.82;100.00
60817;BME280;51921;51.518;-3.188;2023-05-29T02:28:19;102392.31;;;5.88;100.00
60817;BME280;51921;51.518;-3.188;2023-05-29T02:30:45;102395.92;;;5.49;100.00
60817;BME280;51921;51.518;-3.188;2023-05-29T02:33:10;102393.12;;;5.69;100.00
60817;BME280;51921;51.518;-3.188;2023-05-29T02:35:36;102389.51;;;5.77;100.00
60817;BME280;51921;51.518;-3.188;2023-05-29T02:38:01;102392.30;;;5.35;100.00
60817;BME280;51921;51.518;-3.188;2023-05-29T02:40:27;102393.86;;;5.56;100.00
60817;BME280;51921;51.518;-3.188;2023-05-29T02:42:52;102395.11;;;5.85;100.00
60817;BME280;51921;51.518;-3.188;2023-05-29T02:45:18;102397.20;;;5.52;100.00
60817;BME280;51921;51.518;-3.188;2023-05-29T02:47:43;102398.38;;;5.21;100.00
60817;BME280;51921;51.518;-3.188;2023-05-29T02:50:10;102399.00;;;5.41;100.00
60817;BME280;51921;51.518;-3.188;2023-05-29T02:52:35;102397.55;;;5.38;100.00
60817;BME280;51921;51.518;-3.188;2023-05-29T02:55:00;102389.43;;;5.58;100.00
60817;BME280;51921;51.518;-3.188;2023-05-29T02:57:25;102388.75;;;5.41;100.00
60817;BME280;51921;51.518;-3.188;2023-05-29T02:59:51;102390.13;;;5.38;100.00
60817;BME280;51921;51.518;-3.188;2023-05-29T03:02:16;102384.84;;;5.40;100.00
60817;BME280;51921;51.518;-3.188;2023-05-29T03:04:42;102381.37;;;5.29;100.00
60817;BME280;51921;51.518;-3.188;2023-05-29T03:07:08;102382.20;;;5.38;100.00
60817;BME280;51921;51.518;-3.188;2023-05-29T03:09:33;102381.44;;;5.21;100.00
60817;BME280;51921;51.518;-3.188;2023-05-29T03:11:59;102381.70;;;5.17;100.00
60817;BME280;51921;51.518;-3.188;2023-05-29T03:14:24;102383.38;;;5.23;100.00
60817;BME280;51921;51.518;-3.188;2023-05-29T03:16:50;102382.48;;;5.12;100.00
60817;BME280;51921;51.518;-3.188;2023-05-29T03:19:15;102384.78;;;4.95;100.00
60817;BME280;51921;51.518;-3.188;2023-05-29T03:21:41;102385.26;;;5.05;100.00
60817;BME280;51921;51.518;-3.188;2023-05-29T03:24:07;102378.57;;;5.11;100.00
60817;BME280;51921;51.518;-3.188;2023-05-29T03:26:32;102378.48;;;5.05;100.00
60817;BME280;51921;51.518;-3.188;2023-05-29T03:28:58;102378.61;;;5.11;100.00
60817;BME280;51921;51.518;-3.188;2023-05-29T03:31:23;102381.34;;;5.01;100.00
60817;BME280;51921;51.518;-3.188;2023-05-29T03:33:49;102380.70;;;4.65;100.00
60817;BME280;51921;51.518;-3.188;2023-05-29T03:36:14;102378.76;;;5.18;100.00
60817;BME280;51921;51.518;-3.188;2023-05-29T03:38:40;102384.72;;;5.01;100.00
60817;BME280;51921;51.518;-3.188;2023-05-29T03:41:05;102386.30;;;4.94;100.00
60817;BME280;51921;51.518;-3.188;2023-05-29T03:43:31;102389.81;;;5.21;100.00
60817;BME280;51921;51.518;-3.188;2023-05-29T03:45:57;102387.05;;;4.87;100.00
60817;BME280;51921;51.518;-3.188;2023-05-29T03:48:22;102391.69;;;4.79;100.00
60817;BME280;51921;51.518;-3.188;2023-05-29T03:50:48;102389.64;;;4.83;100.00
60817;BME280;51921;51.518;-3.188;2023-05-29T03:53:13;102386.23;;;4.83;100.00
60817;BME280;51921;51.518;-3.188;2023-05-29T03:55:39;102386.86;;;4.76;100.00
60817;BME280;51921;51.518;-3.188;2023-05-29T03:58:04;102387.82;;;4.59;100.00
60817;BME280;51921;51.518;-3.188;2023-05-29T04:00:30;102391.07;;;4.69;100.00
60817;BME280;51921;51.518;-3.188;2023-05-29T04:02:56;102386.86;;;4.62;100.00
60817;BME280;51921;51.518;-3.188;2023-05-29T04:05:21;102390.62;;;4.66;100.00
60817;BME280;51921;51.518;-3.188;2023-05-29T04:07:47;102394.49;;;4.84;100.00
60817;BME280;51921;51.518;-3.188;2023-05-29T04:10:12;102395.61;;;4.55;100.00
60817;BME280;51921;51.518;-3.188;2023-05-29T04:12:38;102399.71;;;4.54;100.00
60817;BME280;51921;51.518;-3.188;2023-05-29T04:15:05;102402.97;;;4.32;100.00
60817;BME280;51921;51.518;-3.188;2023-05-29T04:17:29;102409.74;;;4.39;100.00
60817;BME280;51921;51.518;-3.188;2023-05-29T04:19:54;102409.37;;;4.59;100.00
60817;BME280;51921;51.518;-3.188;2023-05-29T04:22:20;102410.68;;;4.54;100.00
60817;BME280;51921;51.518;-3.188;2023-05-29T04:24:46;102416.20;;;4.50;100.00
60817;BME280;51921;51.518;-3.188;2023-05-29T04:27:11;102420.64;;;4.50;100.00
60817;BME280;51921;51.518;-3.188;2023-05-29T04:29:37;102424.67;;;4.46;100.00
60817;BME280;51921;51.518;-3.188;2023-05-29T04:32:02;102423.41;;;4.58;100.00
60817;BME280;51921;51.518;-3.188;2023-05-29T04:34:28;102434.71;;;4.19;100.00
60817;BME280;51921;51.518;-3.188;2023-05-29T04:36:53;102429.90;;;4.53;100.00
60817;BME280;51921;51.518;-3.188;2023-05-29T04:39:19;102432.05;;;4.15;100.00
60817;BME280;51921;51.518;-3.188;2023-05-29T04:41:44;102434.35;;;4.48;100.00
60817;BME280;51921;51.518;-3.188;2023-05-29T04:44:10;102438.19;;;4.69;100.00
60817;BME280;51921;51.518;-3.188;2023-05-29T04:46:36;102434.08;;;4.39;100.00
60817;BME280;51921;51.518;-3.188;2023-05-29T04:49:01;102435.32;;;4.61;100.00
60817;BME280;51921;51.518;-3.188;2023-05-29T04:51:27;102432.59;;;4.60;100.00
60817;BME280;51921;51.518;-3.188;2023-05-29T04:53:52;102436.20;;;4.59;100.00
60817;BME280;51921;51.518;-3.188;2023-05-29T04:56:18;102438.99;;;4.32;100.00
60817;BME280;51921;51.518;-3.188;2023-05-29T04:58:44;102440.78;;;4.42;100.00
60817;BME280;51921;51.518;-3.188;2023-05-29T05:01:09;102445.60;;;4.58;100.00
60817;BME280;51921;51.518;-3.188;2023-05-29T05:03:34;102443.92;;;4.87;100.00
60817;BME280;51921;51.518;-3.188;2023-05-29T05:06:00;102444.24;;;4.64;100.00
60817;BME280;51921;51.518;-3.188;2023-05-29T05:08:25;102452.31;;;4.62;100.00
60817;BME280;51921;51.518;-3.188;2023-05-29T05:10:50;102456.11;;;4.85;100.00
60817;BME280;51921;51.518;-3.188;2023-05-29T05:13:16;102459.71;;;4.41;100.00
60817;BME280;51921;51.518;-3.188;2023-05-29T05:15:42;102453.79;;;4.29;100.00
60817;BME280;51921;51.518;-3.188;2023-05-29T05:18:07;102454.89;;;4.66;100.00
60817;BME280;51921;51.518;-3.188;2023-05-29T05:20:33;102457.40;;;4.79;100.00
60817;BME280;51921;51.518;-3.188;2023-05-29T05:22:58;102456.26;;;4.77;100.00
60817;BME280;51921;51.518;-3.188;2023-05-29T05:25:24;102470.69;;;4.69;100.00
60817;BME280;51921;51.518;-3.188;2023-05-29T05:27:50;102463.21;;;4.40;100.00
60817;BME280;51921;51.518;-3.188;2023-05-29T05:30:15;102470.37;;;4.67;100.00
60817;BME280;51921;51.518;-3.188;2023-05-29T05:32:40;102468.61;;;4.69;100.00
60817;BME280;51921;51.518;-3.188;2023-05-29T05:35:07;102468.18;;;4.84;100.00
60817;BME280;51921;51.518;-3.188;2023-05-29T05:37:32;102472.80;;;4.88;100.00
60817;BME280;51921;51.518;-3.188;2023-05-29T05:39:57;102476.93;;;4.87;100.00
60817;BME280;51921;51.518;-3.188;2023-05-29T05:42:23;102479.84;;;4.80;100.00
60817;BME280;51921;51.518;-3.188;2023-05-29T05:44:48;102480.34;;;5.05;100.00
60817;BME280;51921;51.518;-3.188;2023-05-29T05:47:13;102478.16;;;4.95;100.00
60817;BME280;51921;51.518;-3.188;2023-05-29T05:49:39;102492.39;;;4.78;100.00
60817;BME280;51921;51.518;-3.188;2023-05-29T05:52:05;102473.39;;;5.35;100.00
60817;BME280;51921;51.518;-3.188;2023-05-29T05:54:30;102472.38;;;5.28;100.00
60817;BME280;51921;51.518;-3.188;2023-05-29T05:56:55;102475.10;;;4.88;100.00
60817;BME280;51921;51.518;-3.188;2023-05-29T05:59:20;102473.73;;;4.76;100.00
60817;BME280;51921;51.518;-3.188;2023-05-29T06:01:45;102472.46;;;4.78;100.00
60817;BME280;51921;51.518;-3.188;2023-05-29T06:04:11;102479.33;;;4.92;100.00
60817;BME280;51921;51.518;-3.188;2023-05-29T06:06:37;102470.53;;;5.23;100.00
60817;BME280;51921;51.518;-3.188;2023-05-29T06:09:02;102471.89;;;5.24;100.00
60817;BME280;51921;51.518;-3.188;2023-05-29T06:11:28;102475.15;;;5.03;100.00
60817;BME280;51921;51.518;-3.188;2023-05-29T06:13:53;102470.74;;;5.15;100.00
60817;BME280;51921;51.518;-3.188;2023-05-29T06:16:19;102466.83;;;5.29;100.00
60817;BME280;51921;51.518;-3.188;2023-05-29T06:18:45;102465.73;;;5.10;100.00
60817;BME280;51921;51.518;-3.188;2023-05-29T06:21:12;102472.06;;;5.48;100.00
60817;BME280;51921;51.518;-3.188;2023-05-29T06:23:35;102474.01;;;5.32;100.00
60817;BME280;51921;51.518;-3.188;2023-05-29T06:26:01;102479.76;;;5.37;100.00
60817;BME280;51921;51.518;-3.188;2023-05-29T06:28:26;102475.87;;;5.23;100.00
60817;BME280;51921;51.518;-3.188;2023-05-29T06:30:52;102481.41;;;5.74;100.00
60817;BME280;51921;51.518;-3.188;2023-05-29T06:33:17;102479.85;;;5.50;100.00
60817;BME280;51921;51.518;-3.188;2023-05-29T06:35:43;102479.56;;;5.69;100.00
60817;BME280;51921;51.518;-3.188;2023-05-29T06:38:08;102480.23;;;5.85;100.00
60817;BME280;51921;51.518;-3.188;2023-05-29T06:40:34;102484.44;;;5.62;100.00
60817;BME280;51921;51.518;-3.188;2023-05-29T06:43:00;102479.60;;;5.80;100.00
60817;BME280;51921;51.518;-3.188;2023-05-29T06:45:25;102486.13;;;5.73;100.00
60817;BME280;51921;51.518;-3.188;2023-05-29T06:47:50;102492.15;;;5.58;100.00
60817;BME280;51921;51.518;-3.188;2023-05-29T06:50:16;102483.48;;;5.43;100.00
60817;BME280;51921;51.518;-3.188;2023-05-29T06:52:41;102481.62;;;6.00;100.00
60817;BME280;51921;51.518;-3.188;2023-05-29T06:55:07;102483.47;;;5.64;100.00
60817;BME280;51921;51.518;-3.188;2023-05-29T06:57:32;102480.79;;;5.74;100.00
60817;BME280;51921;51.518;-3.188;2023-05-29T06:59:58;102484.53;;;5.34;100.00
60817;BME280;51921;51.518;-3.188;2023-05-29T07:02:23;102482.81;;;5.69;100.00
60817;BME280;51921;51.518;-3.188;2023-05-29T07:04:49;102484.54;;;5.76;100.00
60817;BME280;51921;51.518;-3.188;2023-05-29T07:07:15;102491.85;;;6.00;100.00
60817;BME280;51921;51.518;-3.188;2023-05-29T07:09:40;102487.47;;;6.12;100.00
60817;BME280;51921;51.518;-3.188;2023-05-29T07:12:06;102480.87;;;5.80;100.00
60817;BME280;51921;51.518;-3.188;2023-05-29T07:14:31;102476.12;;;6.05;100.00
60817;BME280;51921;51.518;-3.188;2023-05-29T07:16:56;102470.32;;;6.78;100.00
60817;BME280;51921;51.518;-3.188;2023-05-29T07:19:22;102483.38;;;6.57;100.00
60817;BME280;51921;51.518;-3.188;2023-05-29T07:21:48;102477.81;;;7.19;100.00
60817;BME280;51921;51.518;-3.188;2023-05-29T07:24:13;102477.74;;;6.82;100.00
60817;BME280;51921;51.518;-3.188;2023-05-29T07:26:39;102487.73;;;6.87;100.00
60817;BME280;51921;51.518;-3.188;2023-05-29T07:29:05;102481.74;;;7.30;100.00
60817;BME280;51921;51.518;-3.188;2023-05-29T07:31:29;102490.36;;;6.98;100.00
60817;BME280;51921;51.518;-3.188;2023-05-29T07:33:55;102480.41;;;7.51;100.00
60817;BME280;51921;51.518;-3.188;2023-05-29T07:36:20;102471.58;;;7.79;100.00
60817;BME280;51921;51.518;-3.188;2023-05-29T07:38:46;102477.45;;;7.58;100.00
60817;BME280;51921;51.518;-3.188;2023-05-29T07:41:11;102475.82;;;7.78;100.00
60817;BME280;51921;51.518;-3.188;2023-05-29T07:43:37;102477.95;;;7.44;100.00
60817;BME280;51921;51.518;-3.188;2023-05-29T07:46:03;102477.25;;;8.03;100.00
60817;BME280;51921;51.518;-3.188;2023-05-29T07:48:28;102479.21;;;7.85;100.00
60817;BME280;51921;51.518;-3.188;2023-05-29T07:50:53;102478.38;;;7.87;100.00
60817;BME280;51921;51.518;-3.188;2023-05-29T07:53:19;102476.97;;;8.99;98.30
60817;BME280;51921;51.518;-3.188;2023-05-29T07:55:44;102474.26;;;8.11;100.00
60817;BME280;51921;51.518;-3.188;2023-05-29T07:58:10;102473.96;;;8.63;99.20
60817;BME280;51921;51.518;-3.188;2023-05-29T08:00:35;102476.63;;;8.33;97.58
60817;BME280;51921;51.518;-3.188;2023-05-29T08:03:01;102482.98;;;6.93;100.00
60817;BME280;51921;51.518;-3.188;2023-05-29T08:05:26;102470.11;;;6.74;100.00
60817;BME280;51921;51.518;-3.188;2023-05-29T08:07:52;102470.12;;;6.99;100.00
60817;BME280;51921;51.518;-3.188;2023-05-29T08:10:17;102472.84;;;7.20;100.00
60817;BME280;51921;51.518;-3.188;2023-05-29T08:12:43;102473.43;;;7.23;100.00
60817;BME280;51921;51.518;-3.188;2023-05-29T08:15:09;102474.47;;;7.71;100.00
60817;BME280;51921;51.518;-3.188;2023-05-29T08:17:34;102481.08;;;7.49;100.00
60817;BME280;51921;51.518;-3.188;2023-05-29T08:19:59;102469.20;;;7.27;100.00
60817;BME280;51921;51.518;-3.188;2023-05-29T08:22:28;102468.82;;;7.15;100.00
60817;BME280;51921;51.518;-3.188;2023-05-29T08:24:50;102460.62;;;7.65;100.00
60817;BME280;51921;51.518;-3.188;2023-05-29T08:27:16;102460.15;;;7.34;100.00
60817;BME280;51921;51.518;-3.188;2023-05-29T08:29:41;102468.27;;;8.07;100.00
60817;BME280;51921;51.518;-3.188;2023-05-29T08:32:08;102461.66;;;7.59;100.00
60817;BME280;51921;51.518;-3.188;2023-05-29T08:34:32;102456.87;;;8.07;98.61
60817;BME280;51921;51.518;-3.188;2023-05-29T08:36:58;102458.88;;;7.93;98.32
60817;BME280;51921;51.518;-3.188;2023-05-29T08:39:23;102457.27;;;8.00;98.10
60817;BME280;51921;51.518;-3.188;2023-05-29T08:41:56;102458.09;;;8.15;96.06
60817;BME280;51921;51.518;-3.188;2023-05-29T08:44:14;102452.04;;;8.74;92.02
60817;BME280;51921;51.518;-3.188;2023-05-29T08:46:40;102464.27;;;8.14;95.83
60817;BME280;51921;51.518;-3.188;2023-05-29T08:49:08;102455.39;;;8.14;96.07
60817;BME280;51921;51.518;-3.188;2023-05-29T08:51:32;102451.80;;;9.07;89.28
60817;BME280;51921;51.518;-3.188;2023-05-29T08:53:56;102448.01;;;9.11;86.29
60817;BME280;51921;51.518;-3.188;2023-05-29T08:56:22;102447.39;;;9.10;88.84
60817;BME280;51921;51.518;-3.188;2023-05-29T08:58:47;102458.52;;;7.99;95.73
60817;BME280;51921;51.518;-3.188;2023-05-29T09:01:13;102454.92;;;8.58;92.64
60817;BME280;51921;51.518;-3.188;2023-05-29T09:03:38;102458.79;;;9.10;92.14
60817;BME280;51921;51.518;-3.188;2023-05-29T09:06:04;102457.70;;;8.53;93.49
60817;BME280;51921;51.518;-3.188;2023-05-29T09:08:29;102449.73;;;9.01;87.01
60817;BME280;51921;51.518;-3.188;2023-05-29T09:10:55;102460.58;;;8.42;91.03
60817;BME280;51921;51.518;-3.188;2023-05-29T09:13:20;102447.35;;;8.59;89.93
60817;BME280;51921;51.518;-3.188;2023-05-29T09:15:46;102445.76;;;8.20;92.94
60817;BME280;51921;51.518;-3.188;2023-05-29T09:18:11;102442.28;;;8.14;93.21
60817;BME280;51921;51.518;-3.188;2023-05-29T09:20:37;102442.25;;;8.84;89.58
60817;BME280;51921;51.518;-3.188;2023-05-29T09:23:04;102451.54;;;8.48;89.22
60817;BME280;51921;51.518;-3.188;2023-05-29T09:25:29;102460.14;;;8.61;90.74
60817;BME280;51921;51.518;-3.188;2023-05-29T09:27:55;102454.85;;;8.75;90.39
60817;BME280;51921;51.518;-3.188;2023-05-29T09:32:44;102468.01;;;8.26;92.99
60817;BME280;51921;51.518;-3.188;2023-05-29T09:35:10;102457.16;;;8.12;91.70
60817;BME280;51921;51.518;-3.188;2023-05-29T09:37:35;102457.97;;;8.62;88.96
60817;BME280;51921;51.518;-3.188;2023-05-29T09:40:01;102448.95;;;8.73;88.10
60817;BME280;51921;51.518;-3.188;2023-05-29T09:42:26;102445.97;;;9.37;84.22
60817;BME280;51921;51.518;-3.188;2023-05-29T09:44:52;102464.85;;;8.38;83.57
60817;BME280;51921;51.518;-3.188;2023-05-29T09:47:18;102445.90;;;8.86;87.00
60817;BME280;51921;51.518;-3.188;2023-05-29T09:49:43;102451.90;;;8.75;89.73
60817;BME280;51921;51.518;-3.188;2023-05-29T09:52:08;102445.04;;;8.70;87.04
60817;BME280;51921;51.518;-3.188;2023-05-29T09:54:35;102443.77;;;8.75;84.88
60817;BME280;51921;51.518;-3.188;2023-05-29T09:57:00;102439.13;;;9.16;82.65
60817;BME280;51921;51.518;-3.188;2023-05-29T09:59:25;102437.99;;;8.75;84.08
60817;BME280;51921;51.518;-3.188;2023-05-29T10:01:56;102448.82;;;8.86;82.83
60817;BME280;51921;51.518;-3.188;2023-05-29T10:04:15;102441.98;;;8.65;84.02
60817;BME280;51921;51.518;-3.188;2023-05-29T10:06:43;102453.20;;;8.98;83.89
60817;BME280;51921;51.518;-3.188;2023-05-29T10:09:09;102435.77;;;8.90;86.04
60817;BME280;51921;51.518;-3.188;2023-05-29T10:11:33;102443.62;;;8.49;87.26
60817;BME280;51921;51.518;-3.188;2023-05-29T10:13:59;102447.12;;;9.35;85.85
60817;BME280;51921;51.518;-3.188;2023-05-29T10:16:24;102454.82;;;8.58;85.40
60817;BME280;51921;51.518;-3.188;2023-05-29T10:18:53;102456.58;;;9.02;84.65
60817;BME280;51921;51.518;-3.188;2023-05-29T10:21:14;102449.52;;;9.13;82.86
60817;BME280;51921;51.518;-3.188;2023-05-29T10:23:42;102449.85;;;9.21;83.55
60817;BME280;51921;51.518;-3.188;2023-05-29T10:26:10;102448.22;;;9.47;85.25
60817;BME280;51921;51.518;-3.188;2023-05-29T10:28:30;102447.63;;;8.76;87.02
60817;BME280;51921;51.518;-3.188;2023-05-29T10:31:01;102448.21;;;9.18;88.44
60817;BME280;51921;51.518;-3.188;2023-05-29T10:33:31;102439.71;;;9.08;86.74
60817;BME280;51921;51.518;-3.188;2023-05-29T10:35:50;102443.11;;;9.32;87.67
60817;BME280;51921;51.518;-3.188;2023-05-29T10:38:14;102432.28;;;9.73;87.72
60817;BME280;51921;51.518;-3.188;2023-05-29T10:40:38;102463.82;;;9.31;88.80
60817;BME280;51921;51.518;-3.188;2023-05-29T10:43:03;102441.95;;;9.26;88.02
60817;BME280;51921;51.518;-3.188;2023-05-29T10:47:54;102444.13;;;9.54;86.49
60817;BME280;51921;51.518;-3.188;2023-05-29T10:52:46;102440.04;;;9.17;88.96
60817;BME280;51921;51.518;-3.188;2023-05-29T10:55:11;102441.92;;;9.54;88.08
60817;BME280;51921;51.518;-3.188;2023-05-29T10:57:36;102443.46;;;9.36;88.28
60817;BME280;51921;51.518;-3.188;2023-05-29T11:00:05;102440.99;;;9.79;86.92
60817;BME280;51921;51.518;-3.188;2023-05-29T11:02:27;102433.15;;;10.49;82.25
60817;BME280;51921;51.518;-3.188;2023-05-29T11:05:06;102430.74;;;10.60;80.32
60817;BME280;51921;51.518;-3.188;2023-05-29T11:09:43;102436.32;;;9.53;80.77
60817;BME280;51921;51.518;-3.188;2023-05-29T11:12:14;102446.63;;;9.35;79.56
60817;BME280;51921;51.518;-3.188;2023-05-29T11:14:44;102435.23;;;10.53;79.63
60817;BME280;51921;51.518;-3.188;2023-05-29T11:17:00;102441.08;;;9.55;79.00
60817;BME280;51921;51.518;-3.188;2023-05-29T11:19:25;102432.77;;;10.08;79.83
60817;BME280;51921;51.518;-3.188;2023-05-29T11:21:59;102437.38;;;10.13;80.24
60817;BME280;51921;51.518;-3.188;2023-05-29T11:24:21;102440.62;;;9.80;79.52
60817;BME280;51921;51.518;-3.188;2023-05-29T11:26:45;102443.93;;;9.99;78.36
60817;BME280;51921;51.518;-3.188;2023-05-29T11:29:07;102441.50;;;9.66;80.32
60817;BME280;51921;51.518;-3.188;2023-05-29T11:31:33;102430.88;;;9.85;78.30
60817;BME280;51921;51.518;-3.188;2023-05-29T11:34:00;102428.11;;;10.24;77.13
60817;BME280;51921;51.518;-3.188;2023-05-29T11:36:23;102423.60;;;10.68;79.27
60817;BME280;51921;51.518;-3.188;2023-05-29T11:38:51;102426.21;;;9.90;79.15
60817;BME280;51921;51.518;-3.188;2023-05-29T11:41:17;102420.15;;;9.95;80.23
60817;BME280;51921;51.518;-3.188;2023-05-29T11:43:40;102419.48;;;10.69;78.85
60817;BME280;51921;51.518;-3.188;2023-05-29T11:46:15;102429.18;;;9.95;78.93
60817;BME280;51921;51.518;-3.188;2023-05-29T11:48:31;102420.03;;;10.20;77.19
60817;BME280;51921;51.518;-3.188;2023-05-29T11:50:56;102422.50;;;10.59;76.61
60817;BME280;51921;51.518;-3.188;2023-05-29T11:53:22;102410.49;;;10.70;76.90
60817;BME280;51921;51.518;-3.188;2023-05-29T11:55:48;102407.80;;;10.76;77.78
60817;BME280;51921;51.518;-3.188;2023-05-29T11:58:14;102423.84;;;10.40;77.32
60817;BME280;51921;51.518;-3.188;2023-05-29T12:00:39;102410.47;;;10.84;77.27
60817;BME280;51921;51.518;-3.188;2023-05-29T12:03:04;102415.62;;;10.76;74.63
60817;BME280;51921;51.518;-3.188;2023-05-29T12:05:30;102413.12;;;10.33;76.56
60817;BME280;51921;51.518;-3.188;2023-05-29T12:07:55;102417.35;;;10.11;77.32
60817;BME280;51921;51.518;-3.188;2023-05-29T12:10:21;102411.61;;;10.93;75.68
60817;BME280;51921;51.518;-3.188;2023-05-29T12:12:50;102414.76;;;10.63;75.98
60817;BME280;51921;51.518;-3.188;2023-05-29T12:15:11;102419.26;;;10.77;75.66
60817;BME280;51921;51.518;-3.188;2023-05-29T12:17:37;102408.80;;;11.31;72.02
60817;BME280;51921;51.518;-3.188;2023-05-29T12:20:04;102406.32;;;11.24;71.87
60817;BME280;51921;51.518;-3.188;2023-05-29T12:22:33;102402.92;;;10.71;73.37
60817;BME280;51921;51.518;-3.188;2023-05-29T12:24:53;102392.29;;;11.36;70.18
60817;BME280;51921;51.518;-3.188;2023-05-29T12:27:18;102412.74;;;10.86;73.32
60817;BME280;51921;51.518;-3.188;2023-05-29T12:29:44;102394.70;;;11.04;73.69
60817;BME280;51921;51.518;-3.188;2023-05-29T12:32:10;102398.85;;;11.31;70.67
60817;BME280;51921;51.518;-3.188;2023-05-29T12:34:36;102399.21;;;11.43;71.41
60817;BME280;51921;51.518;-3.188;2023-05-29T12:37:05;102407.38;;;11.68;73.36
60817;BME280;51921;51.518;-3.188;2023-05-29T12:39:26;102414.83;;;11.30;71.16
60817;BME280;51921;51.518;-3.188;2023-05-29T12:41:54;102411.61;;;11.47;72.87
60817;BME280;51921;51.518;-3.188;2023-05-29T12:44:18;102399.90;;;11.05;74.54